Terminal Aerodrome Forecast
Issued by NWS

Home | Current Version | Previous Version | Text Only | Print | Product List | Glossary On
Versions: 1 2 3 4 5 6 7 8 9 10 11 12 13 14 15 16 17
000
FTUS43 KPAH 240344 AAB
TAFCGI
TAF AMD
KCGI 240344Z 2404/2424 16006KT P6SM BKN180
     FM240630 19008KT P6SM FEW040 BKN300
     FM241400 20011KT P6SM SCT035 SCT070=

USA.gov is the U.S. government's official web portal to all federal, state and local government web resources and services.